Time;durP1;ratioP1;P1;durP2;ratioP2;P2;SDS_P1;SDS_P2;PMS_P1;PMS_P2;Temp;Humidity;BMP_temperature;BMP_pressure;BME280_temperature;BME280_humidity;BME280_pressure;Samples;Min_cycle;Max_cycle;Signal;HPM_P1;HPM_P2
2023/07/07 00:01:03;;;;;;;7.30;1.80;;;13.90;95.90;;;;;;5030819;28;20174;-77
2023/07/07 00:03:29;;;;;;;5.43;2.20;;;13.90;95.90;;;;;;5031452;28;20264;-78
2023/07/07 00:05:54;;;;;;;3.93;1.40;;;13.80;95.80;;;;;;5030720;28;20431;-77
2023/07/07 00:08:20;;;;;;;3.07;1.53;;;13.70;96.00;;;;;;5039623;28;20478;-78
2023/07/07 00:10:47;;;;;;;5.20;2.30;;;13.70;96.20;;;;;;5035657;28;20186;-78
2023/07/07 00:13:14;;;;;;;3.60;1.87;;;13.80;96.10;;;;;;5031415;28;20206;-77
2023/07/07 00:15:44;;;;;;;4.03;1.50;;;13.80;96.00;;;;;;5031100;28;20491;-78
2023/07/07 00:18:15;;;;;;;4.40;1.87;;;13.70;96.10;;;;;;5031397;28;20425;-78
2023/07/07 00:20:41;;;;;;;6.20;1.70;;;13.70;96.20;;;;;;5033947;28;20600;-78
2023/07/07 00:23:07;;;;;;;2.60;1.70;;;13.50;96.10;;;;;;5034808;28;20827;-77
2023/07/07 00:25:32;;;;;;;4.93;2.33;;;13.60;96.40;;;;;;5040847;28;20412;-78
2023/07/07 00:27:58;;;;;;;4.10;1.20;;;13.60;96.50;;;;;;5035194;28;20420;-78
2023/07/07 00:30:23;;;;;;;3.80;1.60;;;13.50;96.70;;;;;;5034312;28;20190;-78
2023/07/07 00:32:49;;;;;;;5.43;2.07;;;13.50;96.70;;;;;;5034150;28;20210;-78
2023/07/07 00:35:15;;;;;;;3.33;1.90;;;13.50;97.10;;;;;;5035710;28;20202;-78
2023/07/07 00:37:43;;;;;;;3.20;1.43;;;13.40;97.10;;;;;;5037907;28;20194;-77
2023/07/07 00:40:10;;;;;;;2.83;1.50;;;13.30;97.10;;;;;;5043585;28;20620;-78
2023/07/07 00:42:35;;;;;;;2.53;1.23;;;13.40;97.40;;;;;;5057796;28;20523;-78
2023/07/07 00:45:18;;;;;;;2.00;1.30;;;13.40;97.70;;;;;;5062496;28;20416;-80
2023/07/07 00:47:45;;;;;;;6.60;1.63;;;13.30;97.70;;;;;;5065454;28;20200;-77
2023/07/07 00:50:13;;;;;;;5.23;2.10;;;13.30;97.50;;;;;;5043013;28;20444;-76
2023/07/07 00:52:42;;;;;;;3.07;1.70;;;13.30;98.00;;;;;;5034039;28;20480;-77
2023/07/07 00:55:15;;;;;;;2.37;1.23;;;13.30;98.10;;;;;;5034469;28;20491;-78
2023/07/07 00:57:42;;;;;;;3.63;1.87;;;13.30;98.00;;;;;;5034235;28;20444;-78
2023/07/07 01:00:09;;;;;;;5.80;2.27;;;13.20;98.30;;;;;;5033896;28;20428;-78
2023/07/07 01:02:34;;;;;;;4.70;1.70;;;13.20;98.70;;;;;;5033144;28;20441;-78
2023/07/07 01:05:03;;;;;;;7.87;2.23;;;13.10;98.60;;;;;;5033947;28;20428;-78
2023/07/07 01:07:38;;;;;;;2.53;1.60;;;13.10;98.60;;;;;;5033862;28;20779;-77
2023/07/07 01:10:04;;;;;;;2.73;1.30;;;13.10;98.60;;;;;;5033908;28;20451;-78
2023/07/07 01:12:30;;;;;;;3.23;1.50;;;13.00;98.60;;;;;;5030014;28;20449;-78
2023/07/07 01:14:55;;;;;;;2.93;1.53;;;13.00;99.00;;;;;;5031272;28;20469;-78
2023/07/07 01:17:53;;;;;;;4.80;2.13;;;13.10;99.00;;;;;;5031011;28;20483;-78
2023/07/07 01:20:41;;;;;;;2.60;1.47;;;13.00;99.10;;;;;;5029730;28;20611;-78
2023/07/07 01:23:21;;;;;;;2.30;1.57;;;13.00;99.50;;;;;;5027223;28;20450;-77
2023/07/07 01:25:49;;;;;;;4.73;2.23;;;12.80;99.60;;;;;;5038962;28;20417;-78
2023/07/07 01:28:31;;;;;;;2.90;1.67;;;12.90;99.60;;;;;;5031504;28;20429;-78
2023/07/07 01:31:15;;;;;;;5.43;1.47;;;12.90;99.70;;;;;;5021332;28;20834;-77
2023/07/07 01:33:42;;;;;;;5.03;2.03;;;12.90;99.80;;;;;;5032937;28;20535;-79
2023/07/07 01:36:07;;;;;;;2.67;1.70;;;12.80;99.90;;;;;;5033176;28;20421;-77
2023/07/07 01:38:38;;;;;;;3.60;1.77;;;12.90;99.90;;;;;;5046571;28;20413;-78
2023/07/07 01:41:28;;;;;;;4.30;1.97;;;12.80;99.90;;;;;;5032972;28;20178;-78
2023/07/07 01:44:24;;;;;;;3.80;1.80;;;12.80;99.90;;;;;;5020233;28;20449;-78
2023/07/07 01:47:08;;;;;;;4.00;1.60;;;12.70;99.90;;;;;;5033066;28;20507;-78
2023/07/07 01:50:00;;;;;;;3.90;1.80;;;12.70;99.90;;;;;;5033120;28;20470;-78
2023/07/07 01:52:29;;;;;;;4.10;1.97;;;12.70;99.90;;;;;;5032774;28;20445;-77
2023/07/07 01:55:03;;;;;;;3.30;1.60;;;12.70;99.90;;;;;;5031260;28;20500;-78
2023/07/07 01:57:31;;;;;;;2.57;1.60;;;12.70;99.90;;;;;;5032797;28;20417;-78
2023/07/07 01:59:57;;;;;;;5.03;2.40;;;12.60;99.90;;;;;;5032787;28;20956;-77
2023/07/07 02:02:23;;;;;;;7.13;2.53;;;12.60;99.90;;;;;;5044587;28;20419;-78
2023/07/07 02:04:49;;;;;;;2.13;1.37;;;12.60;99.90;;;;;;5033584;28;20190;-78
2023/07/07 02:07:14;;;;;;;3.87;1.57;;;12.60;99.90;;;;;;5030966;28;20436;-77
2023/07/07 02:09:40;;;;;;;3.40;1.53;;;12.60;99.90;;;;;;5031141;28;20269;-77
2023/07/07 02:12:06;;;;;;;2.07;1.20;;;12.60;99.90;;;;;;5032571;28;20220;-77
2023/07/07 02:14:32;;;;;;;2.73;1.40;;;12.60;99.90;;;;;;5032087;28;20296;-78
2023/07/07 02:16:57;;;;;;;4.20;1.90;;;12.60;99.90;;;;;;5031228;28;20183;-78
2023/07/07 02:19:23;;;;;;;9.93;1.47;;;12.60;99.90;;;;;;5030660;28;20186;-78
2023/07/07 02:21:49;;;;;;;2.87;1.57;;;12.60;99.90;;;;;;5032297;28;20615;-77
2023/07/07 02:24:14;;;;;;;4.27;1.80;;;12.60;99.90;;;;;;5035198;28;20241;-78
2023/07/07 02:26:40;;;;;;;5.83;2.33;;;12.60;99.90;;;;;;5032160;28;20847;-78
2023/07/07 02:29:06;;;;;;;5.23;2.07;;;12.60;99.90;;;;;;5032329;28;20205;-78
2023/07/07 02:31:31;;;;;;;5.10;2.10;;;12.60;99.90;;;;;;5031831;28;20664;-77
2023/07/07 02:33:57;;;;;;;8.23;2.40;;;12.50;99.90;;;;;;5031503;28;20207;-77
2023/07/07 02:36:24;;;;;;;3.80;1.90;;;12.50;99.90;;;;;;5031892;28;20237;-78
2023/07/07 02:38:50;;;;;;;3.23;1.30;;;12.50;99.90;;;;;;5031627;28;20186;-78
2023/07/07 02:41:16;;;;;;;4.13;1.87;;;12.20;99.90;;;;;;5031374;28;20467;-78
2023/07/07 02:43:41;;;;;;;2.47;1.60;;;12.30;99.90;;;;;;5031187;28;20468;-78
2023/07/07 02:46:07;;;;;;;3.00;1.90;;;12.30;99.90;;;;;;5030685;28;20565;-78
2023/07/07 02:48:32;;;;;;;9.77;1.50;;;12.30;99.90;;;;;;5031695;28;20194;-77
2023/07/07 02:51:03;;;;;;;3.40;1.30;;;12.20;99.90;;;;;;5031613;28;20278;-78
2023/07/07 02:53:31;;;;;;;7.13;2.50;;;12.30;99.90;;;;;;5031954;28;20202;-78
2023/07/07 02:55:57;;;;;;;5.00;1.83;;;12.30;99.90;;;;;;5031369;28;20567;-77
2023/07/07 02:58:23;;;;;;;3.80;2.03;;;12.20;99.90;;;;;;5030387;28;20457;-78
2023/07/07 03:00:49;;;;;;;2.73;1.60;;;12.10;99.90;;;;;;5031349;28;20972;-78
2023/07/07 03:03:15;;;;;;;3.83;2.07;;;12.00;99.90;;;;;;5031903;28;20516;-78
2023/07/07 03:05:42;;;;;;;4.93;2.00;;;12.00;99.90;;;;;;5031712;28;20672;-78
2023/07/07 03:08:08;;;;;;;4.37;1.57;;;12.10;99.90;;;;;;5029113;28;20460;-78
2023/07/07 03:10:38;;;;;;;9.63;1.83;;;12.00;99.90;;;;;;5031774;28;20421;-76
2023/07/07 03:13:04;;;;;;;3.03;1.73;;;12.00;99.90;;;;;;5019099;28;20693;-76
2023/07/07 03:15:40;;;;;;;2.97;1.80;;;11.90;99.90;;;;;;5031414;28;20460;-78
2023/07/07 03:18:07;;;;;;;4.47;1.47;;;12.00;99.90;;;;;;5031756;28;20516;-78
2023/07/07 03:20:33;;;;;;;2.67;1.50;;;12.10;99.90;;;;;;5033236;28;20456;-77
2023/07/07 03:22:59;;;;;;;3.77;1.53;;;11.90;99.90;;;;;;5027556;28;20454;-78
2023/07/07 03:25:26;;;;;;;2.77;1.60;;;11.90;99.90;;;;;;5045691;28;20186;-77
2023/07/07 03:27:51;;;;;;;2.93;1.33;;;11.90;99.90;;;;;;5031357;28;20240;-79
2023/07/07 03:30:18;;;;;;;3.33;1.60;;;11.70;99.90;;;;;;5031258;28;20425;-78
2023/07/07 03:32:43;;;;;;;3.33;1.43;;;11.70;99.90;;;;;;5031346;28;20685;-78
2023/07/07 03:35:09;;;;;;;3.00;1.70;;;11.70;99.90;;;;;;5030007;28;20500;-77
2023/07/07 03:37:36;;;;;;;3.83;1.80;;;11.80;99.90;;;;;;5031891;28;20194;-78
2023/07/07 03:40:02;;;;;;;6.13;2.43;;;11.80;99.90;;;;;;5031712;28;20214;-78
2023/07/07 03:42:30;;;;;;;5.17;2.33;;;11.70;99.90;;;;;;5031102;28;21265;-77
2023/07/07 03:44:56;;;;;;;3.57;1.73;;;11.80;99.90;;;;;;5031633;28;20572;-77
2023/07/07 03:47:21;;;;;;;5.30;1.60;;;11.70;99.90;;;;;;5031495;28;20413;-77
2023/07/07 03:49:48;;;;;;;3.97;2.20;;;11.80;99.90;;;;;;5031213;28;20799;-78
2023/07/07 03:52:14;;;;;;;4.43;1.80;;;11.80;99.90;;;;;;5031039;28;20178;-78
2023/07/07 03:54:40;;;;;;;5.23;1.80;;;11.70;99.90;;;;;;5035041;28;20464;-77
2023/07/07 03:57:07;;;;;;;7.57;2.20;;;11.80;99.90;;;;;;5034966;28;20738;-78
2023/07/07 03:59:32;;;;;;;3.20;1.53;;;11.80;99.90;;;;;;5054062;28;20484;-78
2023/07/07 04:01:58;;;;;;;6.83;2.47;;;11.80;99.90;;;;;;5034817;28;20912;-78
2023/07/07 04:04:25;;;;;;;2.57;1.60;;;11.90;99.90;;;;;;5035070;28;20215;-78
2023/07/07 04:06:54;;;;;;;4.40;2.10;;;11.90;99.90;;;;;;5035037;28;20217;-78
2023/07/07 04:09:20;;;;;;;5.10;2.13;;;11.90;99.90;;;;;;5034974;28;20502;-78
2023/07/07 04:11:46;;;;;;;6.93;2.10;;;11.90;99.90;;;;;;5033809;28;20507;-77
2023/07/07 04:14:11;;;;;;;3.00;1.70;;;12.00;99.90;;;;;;5034652;28;20678;-77
2023/07/07 04:16:37;;;;;;;4.97;2.30;;;12.00;99.90;;;;;;5034825;28;20182;-78
2023/07/07 04:19:02;;;;;;;4.40;1.63;;;12.00;99.90;;;;;;5033555;28;20257;-77
2023/07/07 04:21:30;;;;;;;4.10;1.90;;;12.00;99.90;;;;;;5034187;28;20198;-77
2023/07/07 04:23:57;;;;;;;3.50;1.50;;;12.10;99.90;;;;;;5038361;28;20201;-77
2023/07/07 04:26:25;;;;;;;5.90;1.83;;;12.10;99.90;;;;;;5035885;28;20639;-77
2023/07/07 04:28:51;;;;;;;4.50;1.90;;;12.20;99.90;;;;;;5034551;28;20429;-78
2023/07/07 04:31:18;;;;;;;4.13;1.93;;;12.30;99.90;;;;;;5033979;28;20442;-78
2023/07/07 04:33:43;;;;;;;5.10;2.40;;;12.30;99.90;;;;;;5030685;28;20523;-78
2023/07/07 04:36:13;;;;;;;4.77;2.70;;;12.30;99.90;;;;;;5034055;28;20866;-78
2023/07/07 04:38:38;;;;;;;5.43;2.33;;;12.30;99.90;;;;;;5033105;28;20190;-76
2023/07/07 04:41:05;;;;;;;4.40;1.90;;;12.40;99.90;;;;;;5034772;28;20432;-77
2023/07/07 04:43:32;;;;;;;3.43;1.93;;;12.40;99.90;;;;;;5034444;28;20579;-77
2023/07/07 04:45:59;;;;;;;2.93;1.80;;;12.40;99.90;;;;;;5034851;28;20924;-78
2023/07/07 04:48:24;;;;;;;5.73;2.40;;;12.50;99.90;;;;;;5032735;28;20432;-77
2023/07/07 04:50:55;;;;;;;5.43;2.20;;;12.60;99.90;;;;;;5033839;28;20417;-78
2023/07/07 04:53:21;;;;;;;5.80;1.80;;;12.70;99.90;;;;;;5034075;28;20206;-78
2023/07/07 04:55:46;;;;;;;3.57;1.70;;;12.90;99.90;;;;;;5034580;28;20936;-78
2023/07/07 04:58:12;;;;;;;4.93;2.00;;;13.00;99.90;;;;;;5034246;28;20642;-77
2023/07/07 05:00:38;;;;;;;5.23;1.80;;;12.90;99.90;;;;;;5034124;28;20192;-77
2023/07/07 05:03:04;;;;;;;3.83;2.33;;;13.00;99.90;;;;;;5032258;28;20821;-77
2023/07/07 05:05:29;;;;;;;4.00;1.63;;;13.10;99.90;;;;;;5033223;28;20256;-78
2023/07/07 05:07:55;;;;;;;4.40;2.00;;;13.20;99.90;;;;;;5033636;28;20429;-78
2023/07/07 05:10:21;;;;;;;8.67;2.33;;;13.30;99.90;;;;;;5033659;28;20677;-78
2023/07/07 05:12:46;;;;;;;3.67;1.60;;;13.30;99.90;;;;;;5033461;28;20297;-78
2023/07/07 05:15:12;;;;;;;8.10;2.13;;;13.40;99.90;;;;;;5034280;28;20198;-78
2023/07/07 05:17:37;;;;;;;4.80;2.07;;;13.50;99.90;;;;;;5033202;28;20174;-78
2023/07/07 05:20:03;;;;;;;4.13;2.20;;;13.60;99.90;;;;;;5035451;28;20713;-77
2023/07/07 05:22:29;;;;;;;4.60;1.63;;;13.70;99.90;;;;;;5042575;28;20190;-77
2023/07/07 05:24:54;;;;;;;3.10;1.93;;;13.80;99.90;;;;;;5054699;28;20479;-79
2023/07/07 05:27:20;;;;;;;3.87;1.67;;;13.90;99.90;;;;;;5064485;28;20178;-80
2023/07/07 05:29:46;;;;;;;8.77;2.93;;;14.00;99.90;;;;;;5067930;28;20254;-79
2023/07/07 05:32:11;;;;;;;4.27;1.90;;;14.10;99.90;;;;;;5077962;28;20181;-79
2023/07/07 05:34:37;;;;;;;3.77;2.00;;;14.20;99.90;;;;;;5077448;28;20214;-75
2023/07/07 05:37:03;;;;;;;6.17;2.27;;;14.30;99.90;;;;;;5035956;28;20276;-77
2023/07/07 05:39:28;;;;;;;10.77;2.80;;;14.30;99.90;;;;;;5032663;28;20183;-77
2023/07/07 05:41:54;;;;;;;5.30;2.07;;;14.50;99.90;;;;;;5032013;28;20182;-78
2023/07/07 05:44:20;;;;;;;13.90;3.20;;;14.50;99.90;;;;;;5032715;28;20206;-78
2023/07/07 05:46:45;;;;;;;8.77;3.20;;;14.60;99.90;;;;;;5032699;28;20606;-78
2023/07/07 05:49:11;;;;;;;5.93;2.17;;;14.80;99.90;;;;;;5032100;28;20182;-77
2023/07/07 05:51:36;;;;;;;4.03;2.40;;;14.90;99.90;;;;;;5032820;28;20190;-79
2023/07/07 05:54:02;;;;;;;4.87;2.37;;;15.10;99.90;;;;;;5026102;28;20303;-78
2023/07/07 05:56:28;;;;;;;3.00;1.73;;;15.30;99.90;;;;;;5025975;28;20228;-79
2023/07/07 05:58:55;;;;;;;4.30;2.00;;;15.40;98.80;;;;;;5032765;28;20182;-79
2023/07/07 06:01:20;;;;;;;10.20;2.30;;;15.60;98.10;;;;;;5030405;28;20995;-78
2023/07/07 06:03:46;;;;;;;4.10;2.20;;;15.70;98.60;;;;;;5031131;28;20460;-77
2023/07/07 06:06:12;;;;;;;4.33;2.00;;;15.80;98.70;;;;;;5031106;28;20182;-78
2023/07/07 06:08:39;;;;;;;4.40;2.40;;;15.80;97.60;;;;;;5031301;28;20529;-78
2023/07/07 06:11:06;;;;;;;4.47;2.20;;;16.00;97.10;;;;;;5030016;28;20516;-77
2023/07/07 06:13:32;;;;;;;13.33;2.37;;;16.20;97.10;;;;;;5030804;28;20447;-78
2023/07/07 06:15:58;;;;;;;3.63;1.70;;;16.20;97.10;;;;;;5030702;28;20526;-78
2023/07/07 06:18:24;;;;;;;6.93;1.57;;;16.30;97.40;;;;;;5031596;28;20421;-76
2023/07/07 06:20:59;;;;;;;4.30;1.97;;;16.50;97.10;;;;;;5030411;28;20198;-77
2023/07/07 06:23:26;;;;;;;2.60;1.40;;;16.60;96.80;;;;;;5028743;28;20464;-77
2023/07/07 06:25:52;;;;;;;4.70;1.33;;;16.70;97.10;;;;;;5024128;28;20417;-77
2023/07/07 06:28:19;;;;;;;4.67;2.43;;;16.90;97.10;;;;;;5029736;28;20413;-76
2023/07/07 06:30:48;;;;;;;8.83;2.00;;;16.90;97.00;;;;;;5030689;28;20777;-77
2023/07/07 06:33:14;;;;;;;3.70;1.67;;;17.00;97.00;;;;;;5030746;28;20457;-76
2023/07/07 06:35:41;;;;;;;3.40;1.80;;;17.10;97.10;;;;;;5030444;28;20469;-77
2023/07/07 06:38:08;;;;;;;6.90;3.00;;;17.20;96.40;;;;;;5029715;28;20425;-77
2023/07/07 06:40:34;;;;;;;3.27;2.03;;;17.40;96.10;;;;;;5030147;28;20424;-75
2023/07/07 06:43:01;;;;;;;5.43;2.20;;;17.60;95.70;;;;;;5030236;28;20520;-77
2023/07/07 06:45:27;;;;;;;13.43;2.23;;;17.70;95.60;;;;;;5030737;28;20418;-78
2023/07/07 06:47:54;;;;;;;4.33;2.90;;;17.80;95.80;;;;;;5030272;28;20417;-78
2023/07/07 06:50:31;;;;;;;8.50;2.30;;;17.90;95.70;;;;;;5030509;28;20414;-78
2023/07/07 06:52:57;;;;;;;4.07;1.77;;;18.00;95.90;;;;;;5029767;28;20648;-78
2023/07/07 06:55:23;;;;;;;13.50;2.00;;;18.20;94.80;;;;;;5030175;28;20564;-78
2023/07/07 06:57:49;;;;;;;3.27;1.90;;;18.30;94.80;;;;;;5030459;28;20183;-77
2023/07/07 07:00:15;;;;;;;3.43;1.83;;;18.50;94.90;;;;;;5028814;28;20413;-77
2023/07/07 07:02:42;;;;;;;7.73;2.20;;;18.60;94.70;;;;;;5030034;28;21325;-78
2023/07/07 07:05:08;;;;;;;4.53;2.33;;;18.80;94.40;;;;;;5029802;28;20421;-78
2023/07/07 07:07:33;;;;;;;3.70;1.53;;;19.00;94.20;;;;;;5028904;28;20524;-77
2023/07/07 07:10:02;;;;;;;5.37;2.17;;;19.10;93.70;;;;;;5028947;28;20193;-77
2023/07/07 07:12:28;;;;;;;6.03;2.60;;;19.40;93.50;;;;;;5029383;28;20183;-79
2023/07/07 07:14:54;;;;;;;5.23;2.30;;;19.60;92.90;;;;;;5033226;28;20460;-79
2023/07/07 07:17:22;;;;;;;4.40;1.80;;;19.90;92.60;;;;;;5033514;28;20425;-78
2023/07/07 07:19:47;;;;;;;5.63;2.00;;;20.10;92.60;;;;;;5032005;28;20202;-79
2023/07/07 07:22:13;;;;;;;3.80;2.13;;;20.30;91.70;;;;;;5031523;28;20432;-79
2023/07/07 07:24:38;;;;;;;5.40;2.43;;;20.50;91.30;;;;;;5034188;28;20179;-79
2023/07/07 07:27:05;;;;;;;4.23;2.23;;;20.80;91.50;;;;;;5033684;28;20186;-81
2023/07/07 07:29:30;;;;;;;5.77;2.87;;;21.10;90.60;;;;;;5034859;28;20186;-81
2023/07/07 07:31:56;;;;;;;8.07;2.60;;;21.40;89.70;;;;;;5033451;28;21302;-81
2023/07/07 07:34:32;;;;;;;6.20;2.30;;;21.70;88.80;;;;;;5034752;28;20210;-81
2023/07/07 07:36:58;;;;;;;5.70;2.80;;;22.10;87.80;;;;;;5034360;28;20182;-81
2023/07/07 07:39:25;;;;;;;5.63;2.43;;;22.30;86.30;;;;;;5034203;28;20421;-81
2023/07/07 07:41:54;;;;;;;4.07;1.80;;;22.80;84.30;;;;;;5035583;28;20502;-80
2023/07/07 07:44:21;;;;;;;5.23;2.40;;;23.00;83.80;;;;;;5037367;28;20928;-81
2023/07/07 07:46:48;;;;;;;4.00;2.40;;;24.00;81.30;;;;;;5034304;28;20427;-81
2023/07/07 07:49:14;;;;;;;4.60;1.83;;;25.00;77.80;;;;;;5036233;28;20986;-81
2023/07/07 07:51:40;;;;;;;5.97;2.90;;;25.50;76.80;;;;;;5035249;28;20433;-81
2023/07/07 07:54:08;;;;;;;7.28;2.88;;;26.50;74.30;;;;;;5041034;28;20221;-81
2023/07/07 07:56:34;;;;;;;6.68;2.10;;;27.00;72.60;;;;;;5036928;28;20174;-82
2023/07/07 07:59:00;;;;;;;4.72;2.53;;;27.50;69.30;;;;;;5032453;28;20258;-82
2023/07/07 08:01:26;;;;;;;5.82;3.05;;;27.60;67.60;;;;;;5036148;28;20206;-82
2023/07/07 08:03:52;;;;;;;4.90;2.15;;;28.60;65.40;;;;;;5047536;28;20651;-81
2023/07/07 08:06:17;;;;;;;4.78;2.53;;;29.20;63.30;;;;;;5036465;28;20638;-81
2023/07/07 08:08:43;;;;;;;3.85;2.08;;;29.30;62.80;;;;;;5037935;28;20200;-82
2023/07/07 08:11:13;;;;;;;3.85;1.75;;;28.90;63.50;;;;;;5037519;28;20196;-82
2023/07/07 08:13:38;;;;;;;5.32;2.70;;;29.30;63.10;;;;;;5040013;28;20236;-81
2023/07/07 08:16:04;;;;;;;3.90;2.13;;;28.60;62.70;;;;;;5035336;28;20293;-81
2023/07/07 08:18:29;;;;;;;8.25;2.33;;;28.60;62.90;;;;;;5034497;28;20173;-82
2023/07/07 08:20:55;;;;;;;5.28;2.13;;;28.90;63.90;;;;;;5032093;28;20701;-81
2023/07/07 08:23:21;;;;;;;6.15;2.38;;;28.60;62.70;;;;;;5032241;28;20194;-80
2023/07/07 08:25:46;;;;;;;9.48;2.47;;;28.60;63.80;;;;;;5037686;28;20232;-80
2023/07/07 08:28:12;;;;;;;4.78;2.45;;;28.60;63.50;;;;;;5032646;28;20182;-80
2023/07/07 08:30:38;;;;;;;6.55;2.95;;;28.90;63.90;;;;;;5031040;28;20525;-80
2023/07/07 08:33:03;;;;;;;9.10;3.83;;;29.60;62.40;;;;;;5032288;28;20677;-80
2023/07/07 08:35:29;;;;;;;7.75;2.90;;;29.40;61.50;;;;;;5031050;28;20214;-80
2023/07/07 08:37:54;;;;;;;5.47;2.85;;;29.00;61.10;;;;;;5032347;28;20182;-80
2023/07/07 08:40:24;;;;;;;5.28;2.63;;;28.60;62.40;;;;;;5033352;28;20525;-80
2023/07/07 08:42:51;;;;;;;7.13;2.83;;;29.30;61.00;;;;;;5033230;28;20596;-80
2023/07/07 08:45:21;;;;;;;18.02;2.92;;;29.30;59.90;;;;;;5035741;28;20186;-80
2023/07/07 08:48:05;;;;;;;8.52;3.90;;;29.40;60.60;;;;;;5035687;28;20185;-79
2023/07/07 08:50:35;;;;;;;6.57;3.20;;;29.20;58.30;;;;;;5034549;28;20386;-79
2023/07/07 08:53:09;;;;;;;5.70;2.72;;;29.40;59.40;;;;;;5035204;28;20636;-79
2023/07/07 08:56:04;;;;;;;7.70;2.47;;;29.30;59.50;;;;;;5034572;28;20224;-80
2023/07/07 08:58:34;;;;;;;6.95;2.95;;;29.40;58.40;;;;;;5034237;28;20674;-80
2023/07/07 09:01:21;;;;;;;9.05;2.88;;;29.20;57.40;;;;;;5035319;28;20178;-80
2023/07/07 09:04:03;;;;;;;9.32;3.45;;;30.30;56.70;;;;;;5033129;28;20225;-80
2023/07/07 09:07:06;;;;;;;4.30;2.20;;;30.00;55.60;;;;;;5036848;28;20663;-80
2023/07/07 09:09:56;;;;;;;5.25;3.13;;;30.40;55.80;;;;;;5005700;28;20335;-80
2023/07/07 09:12:38;;;;;;;8.88;3.72;;;30.60;54.60;;;;;;5033634;28;20178;-80
2023/07/07 09:15:12;;;;;;;7.15;3.28;;;30.60;53.10;;;;;;5034869;28;20193;-80
2023/07/07 09:17:42;;;;;;;6.25;2.83;;;30.40;54.10;;;;;;5033135;28;20173;-80
2023/07/07 09:20:11;;;;;;;4.85;2.85;;;30.50;52.40;;;;;;5036535;28;20198;-80
2023/07/07 09:22:51;;;;;;;7.22;3.00;;;30.60;53.50;;;;;;5035162;28;20185;-77
2023/07/07 09:25:20;;;;;;;5.15;3.10;;;30.70;53.60;;;;;;5038766;28;20190;-80
2023/07/07 09:27:54;;;;;;;7.97;2.42;;;30.60;50.70;;;;;;5028655;28;20175;-80
2023/07/07 09:30:33;;;;;;;5.03;2.72;;;29.90;50.90;;;;;;5035880;28;20178;-80
2023/07/07 09:32:59;;;;;;;3.15;2.35;;;29.90;51.80;;;;;;5034635;28;20218;-80
2023/07/07 09:35:31;;;;;;;5.88;2.63;;;29.80;52.10;;;;;;5034920;28;20214;-80
2023/07/07 09:38:25;;;;;;;6.72;3.55;;;29.90;53.70;;;;;;5054082;28;20273;-80
2023/07/07 09:40:56;;;;;;;5.35;3.03;;;30.40;53.10;;;;;;5033659;28;20620;-79
2023/07/07 09:43:34;;;;;;;10.45;4.25;;;30.30;52.50;;;;;;5033475;28;20206;-79
2023/07/07 13:20:56;;;;;;;12.80;3.92;;;30.80;43.40;;;;;;5092778;27;20689;-67
2023/07/07 13:23:28;;;;;;;6.65;3.08;;;30.60;43.50;;;;;;5086040;28;20259;-71
2023/07/07 13:25:54;;;;;;;6.75;3.22;;;30.80;43.10;;;;;;5082497;28;20663;-73
2023/07/07 13:28:23;;;;;;;5.57;2.70;;;31.00;42.50;;;;;;5100965;28;20197;-73
2023/07/07 13:30:53;;;;;;;7.03;3.00;;;30.90;42.60;;;;;;5090024;28;20199;-71
2023/07/07 13:33:22;;;;;;;7.65;3.75;;;31.00;42.80;;;;;;5093084;28;20274;-73
2023/07/07 13:35:55;;;;;;;6.63;3.03;;;31.00;43.00;;;;;;5093899;28;20232;-72
2023/07/07 13:38:26;;;;;;;8.15;3.58;;;30.90;43.60;;;;;;5083993;28;20249;-73
2023/07/07 13:40:53;;;;;;;8.98;3.42;;;30.60;44.50;;;;;;5094413;28;20421;-72
2023/07/07 13:43:44;;;;;;;8.23;3.55;;;30.60;43.50;;;;;;5090053;28;20203;-72
2023/07/07 13:46:14;;;;;;;6.18;2.45;;;30.70;44.40;;;;;;5101414;28;20524;-72
2023/07/07 13:48:42;;;;;;;9.00;3.42;;;30.60;43.50;;;;;;5100731;28;20196;-72
2023/07/07 13:51:21;;;;;;;6.75;3.15;;;30.70;43.80;;;;;;5099174;28;20524;-72
2023/07/07 13:53:47;;;;;;;7.47;4.32;;;30.90;44.20;;;;;;5087506;28;20184;-72
2023/07/07 13:56:13;;;;;;;6.07;2.92;;;30.70;43.60;;;;;;5080054;28;20179;-72
2023/07/07 13:58:47;;;;;;;5.15;3.10;;;30.80;43.70;;;;;;5093042;28;20175;-72
2023/07/07 14:01:43;;;;;;;7.15;3.00;;;30.70;45.50;;;;;;5087356;28;20308;-73
2023/07/07 14:04:15;;;;;;;8.00;4.32;;;31.10;43.00;;;;;;5078201;28;20216;-72
2023/07/07 14:06:44;;;;;;;8.68;3.42;;;31.20;42.70;;;;;;5085479;28;20692;-72
2023/07/07 14:09:35;;;;;;;8.43;2.72;;;31.20;42.60;;;;;;5082010;28;20172;-73
2023/07/07 14:12:03;;;;;;;8.40;2.90;;;31.00;43.10;;;;;;5063678;28;20655;-72
2023/07/07 14:14:28;;;;;;;8.38;3.00;;;31.10;42.50;;;;;;5095264;28;20195;-72
2023/07/07 14:16:59;;;;;;;9.88;3.35;;;31.00;43.10;;;;;;5095439;28;20180;-72
2023/07/07 14:19:38;;;;;;;9.07;2.63;;;31.40;42.20;;;;;;5091446;28;20211;-72
2023/07/07 14:22:06;;;;;;;4.28;2.70;;;31.40;42.00;;;;;;5099791;28;20174;-72
2023/07/07 14:24:31;;;;;;;10.77;2.58;;;31.60;42.30;;;;;;5092856;28;20180;-71
2023/07/07 14:26:58;;;;;;;6.50;2.35;;;31.40;42.00;;;;;;5102735;28;20583;-72
2023/07/07 14:29:36;;;;;;;6.70;2.50;;;31.40;41.00;;;;;;5098389;28;20526;-73
2023/07/07 14:32:05;;;;;;;6.45;3.08;;;31.60;41.50;;;;;;5078613;28;20620;-72
2023/07/07 14:34:44;;;;;;;6.07;3.42;;;31.30;41.40;;;;;;5059861;28;20271;-71
2023/07/07 14:37:48;;;;;;;4.07;2.15;;;31.10;44.00;;;;;;5068206;28;20363;-72
2023/07/07 14:40:43;;;;;;;5.38;2.80;;;31.00;44.70;;;;;;5040674;28;20324;-72
2023/07/07 14:43:41;;;;;;;6.15;2.95;;;31.20;44.50;;;;;;5053926;28;20188;-72
2023/07/07 14:46:32;;;;;;;8.05;2.85;;;31.00;44.20;;;;;;5045491;28;20609;-72
2023/07/07 14:49:25;;;;;;;5.28;2.50;;;30.70;44.50;;;;;;5065369;28;20558;-71
2023/07/07 14:51:55;;;;;;;6.45;2.90;;;30.60;44.90;;;;;;5065384;28;20275;-71
2023/07/07 14:54:22;;;;;;;8.30;3.13;;;30.50;44.60;;;;;;5078167;28;20560;-69
2023/07/07 14:56:52;;;;;;;5.32;2.28;;;30.60;45.70;;;;;;5080188;28;20180;-72
2023/07/07 14:59:32;;;;;;;6.55;2.80;;;30.70;44.50;;;;;;5082537;28;20239;-72
2023/07/07 15:02:22;;;;;;;7.85;3.42;;;30.70;43.90;;;;;;5046705;28;20203;-72
2023/07/07 15:04:48;;;;;;;6.68;2.83;;;30.50;44.50;;;;;;5066509;28;20188;-72
2023/07/07 15:07:32;;;;;;;8.18;3.38;;;30.50;44.30;;;;;;5078568;28;20177;-72
2023/07/07 15:09:59;;;;;;;9.88;3.13;;;30.20;44.80;;;;;;5069701;28;20694;-72
2023/07/07 15:12:28;;;;;;;6.80;3.47;;;30.30;45.30;;;;;;5085921;28;20632;-72
2023/07/07 15:14:54;;;;;;;4.88;2.38;;;30.30;46.00;;;;;;5081639;28;20643;-72
2023/07/07 15:17:20;;;;;;;7.90;3.22;;;30.40;45.30;;;;;;5091855;28;20829;-72
2023/07/07 15:19:46;;;;;;;4.90;2.92;;;30.70;45.30;;;;;;5082026;28;20211;-72
2023/07/07 15:22:12;;;;;;;4.97;2.45;;;30.50;45.20;;;;;;5075843;28;20169;-71
2023/07/07 15:24:38;;;;;;;8.20;3.25;;;30.40;44.70;;;;;;5082293;28;20658;-72
2023/07/07 15:27:04;;;;;;;6.38;3.20;;;30.40;44.90;;;;;;5093063;28;20191;-72
2023/07/07 15:29:31;;;;;;;7.13;3.60;;;30.30;45.00;;;;;;5093686;28;20537;-71
2023/07/07 15:31:57;;;;;;;6.75;3.13;;;30.20;45.30;;;;;;5093506;28;20175;-72
2023/07/07 15:34:24;;;;;;;7.35;2.97;;;30.30;44.50;;;;;;5094251;28;20264;-72
2023/07/07 15:36:49;;;;;;;5.07;2.72;;;30.40;44.50;;;;;;5086615;28;20176;-72
2023/07/07 15:39:15;;;;;;;6.85;3.22;;;30.20;45.00;;;;;;5084303;28;20196;-72
2023/07/07 15:41:41;;;;;;;5.68;2.83;;;30.20;45.30;;;;;;5092938;28;20188;-72
2023/07/07 15:44:07;;;;;;;6.75;3.15;;;30.10;45.20;;;;;;5082311;28;20352;-72
2023/07/07 15:46:34;;;;;;;9.38;2.92;;;30.20;45.70;;;;;;5087942;28;20544;-72
2023/07/07 15:49:12;;;;;;;5.32;2.20;;;30.20;44.30;;;;;;5092633;28;20195;-72
2023/07/07 15:51:41;;;;;;;6.80;2.70;;;30.30;45.50;;;;;;5091383;28;20203;-72
2023/07/07 15:54:08;;;;;;;7.50;2.90;;;30.30;45.70;;;;;;5092210;28;20194;-72
2023/07/07 15:56:39;;;;;;;6.07;3.35;;;30.30;45.50;;;;;;5086546;28;20260;-72
2023/07/07 15:59:24;;;;;;;7.18;3.30;;;30.30;46.00;;;;;;5084690;28;20202;-73
2023/07/07 16:01:53;;;;;;;9.85;2.60;;;30.40;45.10;;;;;;5092313;28;20826;-72
2023/07/07 16:04:20;;;;;;;4.97;2.85;;;30.40;44.70;;;;;;5092084;28;20602;-72
2023/07/07 16:06:47;;;;;;;8.88;3.63;;;30.00;45.70;;;;;;5084362;28;20172;-72
2023/07/07 16:09:14;;;;;;;9.13;3.97;;;30.00;45.60;;;;;;5066280;28;20234;-72
2023/07/07 16:11:41;;;;;;;4.10;2.00;;;30.00;46.60;;;;;;5079083;28;20180;-72
2023/07/07 16:14:06;;;;;;;10.13;3.40;;;29.90;46.40;;;;;;5091667;28;20509;-72
2023/07/07 16:16:35;;;;;;;8.77;3.47;;;30.00;46.60;;;;;;5091773;28;20184;-71
2023/07/07 16:19:07;;;;;;;8.32;3.22;;;29.90;47.20;;;;;;5078197;28;20565;-72
2023/07/07 16:21:32;;;;;;;7.72;2.90;;;29.70;46.80;;;;;;5081731;28;20208;-71
2023/07/07 16:23:58;;;;;;;15.32;3.30;;;29.60;46.50;;;;;;5071402;28;20200;-72
2023/07/07 16:26:29;;;;;;;11.20;3.47;;;29.60;46.50;;;;;;5089856;28;20187;-72
2023/07/07 16:28:56;;;;;;;6.47;2.55;;;29.50;47.30;;;;;;5091478;28;20190;-72
2023/07/07 16:31:24;;;;;;;6.40;2.15;;;29.30;47.00;;;;;;5090804;28;20203;-72